Time;durP1;ratioP1;P1;durP2;ratioP2;P2;SDS_P1;SDS_P2;PMS_P1;PMS_P2;Temp;Humidity;BMP_temperature;BMP_pressure;BME280_temperature;BME280_humidity;BME280_pressure;Samples;Min_cycle;Max_cycle;Signal;HPM_P1;HPM_P2
2021/07/04 00:00:49;;;;;;;13.07;9.20;;;;;;;24.47;100.00;96144.03;5060450;27;20617;-54
2021/07/04 00:03:18;;;;;;;13.40;8.77;;;;;;;24.43;100.00;96142.03;5044275;28;20464;-53
2021/07/04 00:05:48;;;;;;;11.18;8.60;;;;;;;23.97;100.00;96144.59;5042854;28;20069;-54
2021/07/04 00:08:17;;;;;;;;;;;;;;;23.91;100.00;96146.34;5060290;28;20102;-53
2021/07/04 00:10:48;;;;;;;12.85;9.13;;;;;;;23.57;100.00;96147.16;5019501;28;20395;-58
2021/07/04 00:13:17;;;;;;;10.52;8.50;;;;;;;23.80;100.00;96149.88;5023903;28;20089;-53
2021/07/04 00:15:46;;;;;;;16.95;8.90;;;;;;;23.25;100.00;96150.19;5032526;28;20057;-57
2021/07/04 00:18:17;;;;;;;9.90;8.30;;;;;;;22.62;100.00;96146.16;5038852;28;20069;-59
2021/07/04 00:20:46;;;;;;;11.38;9.25;;;;;;;22.71;100.00;96142.13;5033937;28;20064;-56
2021/07/04 00:23:14;;;;;;;11.18;8.18;;;;;;;23.60;100.00;96146.69;5041315;28;20073;-59
2021/07/04 00:25:43;;;;;;;11.63;8.68;;;;;;;23.23;100.00;96152.31;5040382;28;20172;-52
2021/07/04 00:28:13;;;;;;;10.75;8.38;;;;;;;23.54;100.00;96145.78;5026399;28;20101;-60
2021/07/04 00:30:42;;;;;;;11.52;8.73;;;;;;;23.87;100.00;96144.38;5035922;28;20067;-55
2021/07/04 00:33:11;;;;;;;12.25;8.77;;;;;;;23.67;100.00;96142.91;5041393;28;20073;-52
2021/07/04 00:35:41;;;;;;;18.95;9.48;;;;;;;24.41;100.00;96136.09;5030792;28;20091;-58
2021/07/04 00:38:10;;;;;;;15.55;9.70;;;;;;;23.97;100.00;96131.13;5025661;28;20072;-51
2021/07/04 00:40:40;;;;;;;11.65;9.40;;;;;;;24.16;100.00;96127.22;5039890;27;20081;-56
2021/07/04 00:43:08;;;;;;;14.63;10.30;;;;;;;24.85;100.00;96134.50;5041708;28;20542;-56
2021/07/04 00:45:37;;;;;;;13.73;9.65;;;;;;;24.71;100.00;96122.34;5024189;28;20594;-51
2021/07/04 00:48:06;;;;;;;12.25;9.55;;;;;;;25.00;100.00;96128.53;5015741;28;20069;-52
2021/07/04 00:50:37;;;;;;;11.48;9.93;;;;;;;24.68;100.00;96122.84;5030312;28;20068;-54
2021/07/04 00:53:07;;;;;;;12.90;9.82;;;;;;;24.38;100.00;96126.56;5037653;28;20237;-53
2021/07/04 00:55:36;;;;;;;14.98;10.27;;;;;;;25.51;100.00;96122.09;5048110;28;20096;-50
2021/07/04 00:58:05;;;;;;;12.90;10.35;;;;;;;24.53;100.00;96129.56;5018866;28;20475;-59
2021/07/04 01:00:35;;;;;;;12.82;10.70;;;;;;;25.05;100.00;96118.66;5037928;28;20063;-51
2021/07/04 01:03:04;;;;;;;12.73;10.55;;;;;;;24.58;100.00;96118.91;5038323;28;20436;-51
2021/07/04 01:05:35;;;;;;;12.68;10.05;;;;;;;24.89;100.00;96118.63;5034720;28;20489;-53
2021/07/04 01:08:04;;;;;;;12.55;9.90;;;;;;;24.31;100.00;96112.41;5021356;28;20057;-57
2021/07/04 01:10:36;;;;;;;12.65;10.32;;;;;;;24.92;100.00;96118.97;5036522;28;20077;-60
2021/07/04 01:13:06;;;;;;;11.45;9.43;;;;;;;24.86;100.00;96115.34;5003874;28;20441;-54
2021/07/04 01:15:35;;;;;;;13.10;10.25;;;;;;;24.81;100.00;96111.75;5007357;28;20065;-53
2021/07/04 01:18:07;;;;;;;12.88;10.23;;;;;;;24.79;100.00;96111.19;5005655;28;20066;-59
2021/07/04 01:20:36;;;;;;;12.93;10.48;;;;;;;24.77;100.00;96105.19;5007740;28;20073;-52
2021/07/04 01:23:08;;;;;;;14.17;11.17;;;;;;;25.32;100.00;96096.41;5004019;28;20073;-53
2021/07/04 01:25:41;;;;;;;16.00;11.23;;;;;;;25.09;100.00;96103.59;5010574;28;20508;-63
2021/07/04 01:28:09;;;;;;;11.57;9.88;;;;;;;25.09;100.00;96098.22;5004983;28;20077;-52
2021/07/04 01:30:38;;;;;;;15.63;10.02;;;;;;;25.19;100.00;96100.28;5007867;28;20483;-52
2021/07/04 01:33:06;;;;;;;12.57;10.23;;;;;;;25.17;100.00;96097.00;4992919;28;20070;-59
2021/07/04 01:35:36;;;;;;;15.40;10.45;;;;;;;25.51;100.00;96096.97;4992768;28;20520;-55
2021/07/04 01:38:06;;;;;;;13.70;11.13;;;;;;;24.86;100.00;96101.06;4989408;28;20068;-56
2021/07/04 01:40:34;;;;;;;14.10;10.85;;;;;;;26.01;100.00;96086.06;5008406;28;20089;-53
2021/07/04 01:43:03;;;;;;;14.25;10.82;;;;;;;25.02;100.00;96094.03;5005942;28;20092;-60
2021/07/04 01:45:31;;;;;;;11.70;10.20;;;;;;;25.57;100.00;96093.28;5008272;28;20125;-54
2021/07/04 01:47:59;;;;;;;13.25;10.48;;;;;;;25.37;100.00;96087.59;5008074;28;20523;-56
2021/07/04 01:50:30;;;;;;;13.45;10.60;;;;;;;25.53;100.00;96095.69;4998266;28;20089;-54
2021/07/04 01:52:59;;;;;;;14.18;10.30;;;;;;;25.03;100.00;96090.28;4986356;28;22898;-55
2021/07/04 01:55:29;;;;;;;13.13;10.32;;;;;;;25.22;100.00;96093.56;5010448;28;20069;-53
2021/07/04 01:57:57;;;;;;;13.95;10.68;;;;;;;24.56;100.00;96079.75;4992092;28;20130;-53
2021/07/04 02:00:28;;;;;;;13.15;10.40;;;;;;;25.00;100.00;96080.78;4999751;28;20133;-60
2021/07/04 02:02:58;;;;;;;15.07;10.73;;;;;;;24.25;100.00;96081.03;5002097;28;20074;-58
2021/07/04 02:05:27;;;;;;;13.40;9.80;;;;;;;24.26;100.00;96077.28;4995962;28;20069;-53
2021/07/04 02:07:55;;;;;;;11.38;9.57;;;;;;;24.22;100.00;96074.25;5005881;28;20598;-54
2021/07/04 02:10:26;;;;;;;11.48;9.65;;;;;;;24.53;100.00;96081.03;4984372;28;20074;-57
2021/07/04 02:12:56;;;;;;;13.50;9.75;;;;;;;24.61;100.00;96079.88;5006333;28;20073;-61
2021/07/04 02:15:25;;;;;;;;;;;;;;;24.79;100.00;96078.81;5005651;28;20084;-53
2021/07/04 02:17:54;;;;;;;11.38;9.65;;;;;;;24.47;100.00;96070.44;5002075;28;19922;-53
2021/07/04 02:20:41;;;;;;;12.55;9.77;;;;;;;24.32;100.00;96079.00;4989608;28;20072;-55
2021/07/04 02:23:12;;;;;;;11.63;9.63;;;;;;;23.51;100.00;96073.56;5005693;28;20069;-58
2021/07/04 02:25:41;;;;;;;12.90;9.68;;;;;;;24.28;100.00;96075.97;5005877;28;20093;-51
2021/07/04 02:28:13;;;;;;;12.48;9.52;;;;;;;24.59;100.00;96082.78;5008981;28;20074;-52
2021/07/04 02:30:42;;;;;;;12.27;9.07;;;;;;;24.74;100.00;96076.88;4986801;28;20493;-57
2021/07/04 02:33:12;;;;;;;12.10;9.35;;;;;;;24.68;100.00;96068.94;5001189;28;20069;-53
2021/07/04 02:35:44;;;;;;;11.97;9.67;;;;;;;24.63;100.00;96066.94;4996913;28;20065;-51
2021/07/04 02:38:13;;;;;;;12.52;9.88;;;;;;;24.21;100.00;96064.53;4991288;28;20069;-59
2021/07/04 02:40:42;;;;;;;13.50;9.48;;;;;;;24.32;100.00;96065.53;5004635;28;20542;-50
2021/07/04 02:43:14;;;;;;;13.00;8.90;;;;;;;24.23;100.00;96059.72;5009602;28;20069;-56
2021/07/04 02:45:43;;;;;;;11.18;9.00;;;;;;;23.88;100.00;96066.06;5004383;28;20324;-59
2021/07/04 02:48:12;;;;;;;10.85;8.85;;;;;;;24.20;100.00;96062.09;5007128;28;20061;-55
2021/07/04 02:50:41;;;;;;;9.82;7.93;;;;;;;24.30;100.00;96065.78;5005028;28;20065;-65
2021/07/04 02:53:10;;;;;;;11.90;8.40;;;;;;;23.83;100.00;96070.50;5001785;28;20112;-49
2021/07/04 02:55:39;;;;;;;10.70;8.60;;;;;;;23.45;100.00;96074.50;4990283;28;20082;-59
2021/07/04 02:58:07;;;;;;;10.18;8.57;;;;;;;25.12;100.00;96067.25;5003295;28;20551;-55
2021/07/04 03:00:39;;;;;;;13.32;8.32;;;;;;;24.54;100.00;96066.53;5007600;28;20065;-52
2021/07/04 03:03:08;;;;;;;8.88;7.85;;;;;;;24.25;100.00;96067.56;5004352;28;20088;-55
2021/07/04 03:05:36;;;;;;;9.20;7.72;;;;;;;24.27;100.00;96068.97;5007102;28;20061;-52
2021/07/04 03:08:05;;;;;;;9.38;8.20;;;;;;;24.71;100.00;96071.94;5004162;28;20084;-58
2021/07/04 03:10:34;;;;;;;10.03;8.17;;;;;;;24.87;100.00;96073.00;5008988;28;20129;-54
2021/07/04 03:13:03;;;;;;;10.82;8.25;;;;;;;24.30;100.00;96073.06;5003247;28;20077;-53
2021/07/04 03:15:31;;;;;;;8.85;7.35;;;;;;;24.81;100.00;96068.59;4991711;28;20085;-54
2021/07/04 03:18:02;;;;;;;9.48;7.68;;;;;;;23.89;100.00;96067.69;4995205;28;20065;-52
2021/07/04 03:20:30;;;;;;;;;;;;;;;23.57;100.00;96071.78;4998617;28;20083;-61
2021/07/04 03:22:58;;;;;;;8.82;6.80;;;;;;;24.67;100.00;96056.47;4983213;28;19976;-59
2021/07/04 03:25:27;;;;;;;10.60;7.50;;;;;;;25.31;100.00;96057.81;5008914;28;20115;-55
2021/07/04 03:27:56;;;;;;;9.40;7.15;;;;;;;24.96;100.00;96062.66;5002407;28;20068;-55
2021/07/04 03:30:24;;;;;;;7.55;6.75;;;;;;;24.62;100.00;96060.72;4990764;28;20080;-50
2021/07/04 03:32:53;;;;;;;8.15;6.63;;;;;;;24.36;100.00;96067.53;4995685;28;20494;-61
2021/07/04 03:35:23;;;;;;;9.23;6.80;;;;;;;25.56;100.00;96051.94;5010416;28;20065;-53
2021/07/04 03:37:51;;;;;;;8.63;7.20;;;;;;;25.92;100.00;96059.75;5004406;28;20058;-56
2021/07/04 03:40:20;;;;;;;7.82;6.70;;;;;;;24.28;100.00;96057.13;5009408;28;20045;-53
2021/07/04 03:42:50;;;;;;;8.98;6.50;;;;;;;24.34;100.00;96050.78;5002831;28;20065;-55
2021/07/04 03:45:19;;;;;;;7.82;6.80;;;;;;;24.27;100.00;96046.59;5005969;28;20064;-52
2021/07/04 03:47:47;;;;;;;10.82;5.82;;;;;;;24.47;100.00;96044.31;4996155;28;20101;-51
2021/07/04 03:50:16;;;;;;;9.45;7.00;;;;;;;24.05;100.00;96041.03;4990756;28;20582;-58
2021/07/04 03:52:48;;;;;;;8.32;6.78;;;;;;;24.16;100.00;96046.41;5004997;28;20081;-58
2021/07/04 03:55:16;;;;;;;7.57;6.88;;;;;;;24.01;100.00;96048.78;4986657;28;20471;-59
2021/07/04 03:57:45;;;;;;;9.20;7.60;;;;;;;22.78;100.00;96047.06;5002371;28;20069;-53
2021/07/04 04:00:14;;;;;;;10.80;7.70;;;;;;;23.38;100.00;96031.56;5003387;28;20062;-56
2021/07/04 04:02:43;;;;;;;9.75;8.45;;;;;;;23.80;100.00;96023.31;4996821;28;20089;-56
2021/07/04 04:05:13;;;;;;;9.85;8.45;;;;;;;23.56;100.00;96027.91;4985655;28;20073;-51
2021/07/04 04:07:42;;;;;;;10.07;8.20;;;;;;;23.65;100.00;96023.81;4985622;28;20085;-55
2021/07/04 04:10:14;;;;;;;12.65;8.50;;;;;;;24.13;100.00;96025.31;5006808;28;20084;-50
2021/07/04 04:13:01;;;;;;;9.73;7.95;;;;;;;23.06;100.00;96039.19;5011869;28;20049;-53
2021/07/04 04:15:30;;;;;;;9.40;7.78;;;;;;;24.32;100.00;96033.19;5001603;28;20137;-55
2021/07/04 04:17:58;;;;;;;8.93;7.82;;;;;;;24.05;100.00;96033.78;5006233;28;20066;-52
2021/07/04 04:20:27;;;;;;;8.85;7.28;;;;;;;24.06;100.00;96040.00;5003763;28;20088;-50
2021/07/04 04:22:55;;;;;;;8.65;6.93;;;;;;;23.81;100.00;96038.44;5004735;28;20077;-53
2021/07/04 04:25:25;;;;;;;8.57;7.55;;;;;;;24.24;100.00;96041.69;5005361;28;20492;-51
2021/07/04 04:27:53;;;;;;;9.43;7.88;;;;;;;24.24;100.00;96047.88;5005099;28;20065;-51
2021/07/04 04:30:22;;;;;;;9.30;7.30;;;;;;;23.59;100.00;96040.09;4989517;28;20081;-50
2021/07/04 04:32:52;;;;;;;9.60;7.10;;;;;;;24.52;100.00;96054.34;4995824;28;20073;-57
2021/07/04 04:35:20;;;;;;;9.10;7.28;;;;;;;23.45;100.00;96048.41;5002684;28;20061;-50
2021/07/04 04:37:48;;;;;;;9.60;7.57;;;;;;;24.49;100.00;96044.03;5003295;28;20112;-59
2021/07/04 04:40:17;;;;;;;10.88;7.88;;;;;;;23.52;100.00;96052.84;4984088;28;20096;-55
2021/07/04 04:42:47;;;;;;;9.77;7.45;;;;;;;23.57;100.00;96051.09;5003061;28;20066;-53
2021/07/04 04:45:15;;;;;;;8.43;7.45;;;;;;;24.11;100.00;96053.56;5004026;28;20061;-57
2021/07/04 04:47:44;;;;;;;8.23;7.30;;;;;;;24.47;100.00;96049.69;5009751;28;20073;-53
2021/07/04 04:50:12;;;;;;;7.85;7.05;;;;;;;24.34;100.00;96045.38;5010286;28;20081;-48
2021/07/04 04:52:41;;;;;;;7.78;6.45;;;;;;;25.19;100.00;96042.78;5007114;28;20970;-56
2021/07/04 04:55:10;;;;;;;7.38;6.57;;;;;;;24.94;100.00;96037.78;5012116;28;20073;-55
2021/07/04 04:57:40;;;;;;;6.53;5.88;;;;;;;25.96;100.00;96048.19;5007312;28;20069;-48
2021/07/04 05:00:12;;;;;;;8.63;6.50;;;;;;;25.55;100.00;96044.13;5007509;28;20077;-54
2021/07/04 05:02:43;;;;;;;7.13;6.10;;;;;;;26.16;100.00;96038.69;4994339;28;20576;-52
2021/07/04 05:05:13;;;;;;;7.85;6.13;;;;;;;26.86;100.00;96045.06;4994624;28;20069;-50
2021/07/04 05:07:42;;;;;;;7.80;6.10;;;;;;;26.88;100.00;96043.72;5006282;28;20464;-60
2021/07/04 05:10:11;;;;;;;7.70;5.90;;;;;;;26.39;100.00;96049.19;5011879;28;20220;-52
2021/07/04 05:12:40;;;;;;;8.52;5.85;;;;;;;25.96;100.00;96053.59;5000741;28;20064;-50
2021/07/04 05:15:11;;;;;;;6.45;5.55;;;;;;;25.96;100.00;96052.78;5008038;28;20076;-49
2021/07/04 05:17:40;;;;;;;7.40;5.65;;;;;;;25.91;100.00;96055.41;5007088;28;20065;-53
2021/07/04 05:20:10;;;;;;;8.13;5.97;;;;;;;26.72;100.00;96052.78;5002536;28;20073;-50
2021/07/04 05:22:38;;;;;;;6.07;5.47;;;;;;;25.77;100.00;96047.66;4988099;28;20089;-54
2021/07/04 05:25:08;;;;;;;7.33;6.20;;;;;;;26.98;100.00;96045.72;5009225;28;20045;-55
2021/07/04 05:27:37;;;;;;;7.63;6.25;;;;;;;27.17;100.00;96033.41;5006956;28;20066;-51
2021/07/04 05:30:06;;;;;;;8.30;5.95;;;;;;;26.31;100.00;96041.53;5007115;28;20066;-51
2021/07/04 05:32:36;;;;;;;7.10;5.85;;;;;;;26.44;100.00;96035.72;5005677;28;20610;-50
2021/07/04 05:35:06;;;;;;;8.25;6.70;;;;;;;26.37;100.00;96034.31;5009235;28;20069;-48
2021/07/04 05:37:35;;;;;;;7.70;6.07;;;;;;;26.60;100.00;96028.63;5007932;28;20085;-52
2021/07/04 05:40:09;;;;;;;8.63;6.57;;;;;;;26.70;100.00;96035.97;5006093;28;20073;-57
2021/07/04 05:42:38;;;;;;;8.43;6.82;;;;;;;25.42;100.00;96036.38;5005576;28;20077;-52
2021/07/04 05:45:10;;;;;;;7.47;6.65;;;;;;;27.03;100.00;96044.94;5008090;28;20068;-54
2021/07/04 05:47:40;;;;;;;7.00;6.13;;;;;;;26.65;100.00;96031.34;5006106;28;20220;-56
2021/07/04 05:50:09;;;;;;;7.40;6.10;;;;;;;26.73;100.00;96028.16;5006376;28;20062;-54
2021/07/04 05:52:37;;;;;;;8.50;6.90;;;;;;;25.65;100.00;96030.75;5009880;28;22185;-55
2021/07/04 05:55:07;;;;;;;8.98;6.80;;;;;;;27.29;100.00;96027.81;5006052;28;20125;-53
2021/07/04 05:57:36;;;;;;;8.63;6.53;;;;;;;26.66;100.00;96037.56;5007857;28;20061;-52
2021/07/04 06:00:06;;;;;;;8.50;6.65;;;;;;;27.44;100.00;96024.38;4994700;28;20066;-52
2021/07/04 06:02:35;;;;;;;8.20;6.78;;;;;;;25.69;100.00;96028.34;4939138;28;20062;-63
2021/07/04 06:05:06;;;;;;;7.22;6.50;;;;;;;26.43;100.00;96026.00;4989810;28;20221;-65
2021/07/04 06:07:34;;;;;;;8.40;6.72;;;;;;;25.88;100.00;96034.28;5009861;28;20077;-63
2021/07/04 06:10:03;;;;;;;9.20;7.00;;;;;;;25.98;100.00;96027.13;5005258;28;20542;-63
2021/07/04 06:12:31;;;;;;;6.93;6.22;;;;;;;25.92;100.00;96032.72;5006887;28;20084;-63
2021/07/04 06:15:00;;;;;;;7.18;6.30;;;;;;;26.02;100.00;96030.97;5005249;28;20672;-61
2021/07/04 06:17:28;;;;;;;8.38;6.80;;;;;;;26.10;100.00;96029.69;5007675;28;20073;-64
2021/07/04 06:19:56;;;;;;;8.85;6.20;;;;;;;26.96;100.00;96023.50;5004095;28;20081;-63
2021/07/04 06:22:26;;;;;;;7.65;5.93;;;;;;;27.72;100.00;96020.47;5009798;28;20088;-64
2021/07/04 06:24:55;;;;;;;7.50;6.70;;;;;;;27.13;100.00;96023.38;4982137;28;20078;-65
2021/07/04 06:27:23;;;;;;;8.50;6.05;;;;;;;26.39;100.00;96024.84;5000554;28;20471;-63
2021/07/04 06:29:51;;;;;;;7.85;6.15;;;;;;;26.81;100.00;96037.72;4993994;28;20062;-63
2021/07/04 06:32:20;;;;;;;7.78;6.18;;;;;;;26.55;100.00;96028.56;4989000;28;20084;-62
2021/07/04 06:34:48;;;;;;;7.45;6.30;;;;;;;26.86;100.00;96028.81;4984859;28;20472;-64
2021/07/04 06:37:18;;;;;;;6.55;5.95;;;;;;;27.23;100.00;96028.06;5009847;28;20073;-62
2021/07/04 06:39:48;;;;;;;7.40;6.53;;;;;;;25.98;100.00;96032.53;5003008;28;20062;-63
2021/07/04 06:42:17;;;;;;;6.75;6.00;;;;;;;26.33;100.00;96034.00;5002018;28;20540;-62
2021/07/04 06:44:45;;;;;;;7.82;6.18;;;;;;;26.18;100.00;96023.81;5004176;28;20057;-62
2021/07/04 06:47:13;;;;;;;7.07;6.38;;;;;;;26.49;100.00;96029.56;5005953;28;20084;-62
2021/07/04 06:49:42;;;;;;;10.00;6.78;;;;;;;26.96;100.00;96029.72;5005194;28;20157;-63
2021/07/04 06:52:10;;;;;;;7.10;6.40;;;;;;;26.17;100.00;96029.50;4984614;28;20525;-63
2021/07/04 06:54:39;;;;;;;7.18;6.47;;;;;;;26.79;100.00;96028.22;5004072;28;20061;-63
2021/07/04 06:57:27;;;;;;;6.88;6.20;;;;;;;26.68;100.00;96022.72;5000903;28;20105;-63
2021/07/04 06:59:57;;;;;;;7.60;6.80;;;;;;;26.62;100.00;96022.94;5004566;28;20543;-63
2021/07/04 07:02:26;;;;;;;7.18;6.47;;;;;;;26.63;100.00;96021.84;5004786;28;20057;-64
2021/07/04 07:04:54;;;;;;;6.97;6.28;;;;;;;27.35;100.00;96023.22;5004744;28;20081;-61
2021/07/04 07:07:23;;;;;;;7.35;6.60;;;;;;;28.15;100.00;96016.59;4987509;28;20563;-62
2021/07/04 07:09:53;;;;;;;7.22;6.53;;;;;;;27.67;100.00;96021.25;4986946;28;20069;-63
2021/07/04 07:12:23;;;;;;;6.87;6.13;;;;;;;28.45;100.00;96019.66;4997221;28;20084;-64
2021/07/04 07:14:51;;;;;;;7.60;6.38;;;;;;;28.81;100.00;96023.22;5006729;28;20073;-63
2021/07/04 07:17:20;;;;;;;7.00;6.15;;;;;;;27.28;100.00;96028.06;5004658;28;20544;-64
2021/07/04 07:19:48;;;;;;;6.82;6.13;;;;;;;27.89;100.00;96012.97;5006624;28;20472;-64
2021/07/04 07:22:17;;;;;;;7.70;6.65;;;;;;;27.69;100.00;96016.38;5003548;28;20092;-63
2021/07/04 07:24:46;;;;;;;8.37;6.37;;;;;;;26.50;100.00;96026.63;5006129;28;20065;-63
2021/07/04 07:27:15;;;;;;;6.88;6.15;;;;;;;27.59;100.00;96010.91;5031270;28;20038;-64
2021/07/04 07:29:45;;;;;;;5.38;4.35;;;;;;;26.99;100.00;96018.38;5003619;28;20531;-63
2021/07/04 07:32:13;;;;;;;;;;;;;;;28.14;95.64;96009.50;5003499;28;20080;-63
2021/07/04 07:34:42;;;;;;;3.17;2.80;;;;;;;27.48;100.00;96011.13;5005091;28;20408;-63
2021/07/04 07:37:11;;;;;;;4.22;3.13;;;;;;;27.63;100.00;96014.75;5004241;28;20115;-64
2021/07/04 07:39:40;;;;;;;3.63;2.88;;;;;;;28.25;92.88;96006.84;5005583;28;20076;-63
2021/07/04 07:42:08;;;;;;;3.72;3.20;;;;;;;26.99;100.00;96010.25;5002048;28;20077;-62
2021/07/04 07:44:37;;;;;;;4.00;3.38;;;;;;;27.99;98.57;96005.97;4996491;28;20070;-62
2021/07/04 07:47:07;;;;;;;4.03;3.60;;;;;;;27.61;100.00;95995.22;4985281;28;20062;-65
2021/07/04 07:49:35;;;;;;;4.28;3.55;;;;;;;28.18;95.87;95996.25;4987918;28;20074;-64
2021/07/04 07:52:04;;;;;;;3.70;3.40;;;;;;;28.17;97.89;95997.31;5006158;28;20080;-66
2021/07/04 07:54:33;;;;;;;4.07;3.67;;;;;;;28.44;98.33;95990.91;5004116;28;20062;-63
2021/07/04 07:57:02;;;;;;;3.72;3.13;;;;;;;27.58;98.86;96001.16;5006680;28;20069;-63
2021/07/04 07:59:30;;;;;;;2.90;2.60;;;;;;;27.09;100.00;96003.28;5002328;28;20069;-64
2021/07/04 08:01:59;;;;;;;2.20;2.00;;;;;;;28.14;91.72;95993.25;5002588;28;21845;-64
2021/07/04 08:04:29;;;;;;;2.17;1.98;;;;;;;27.80;87.67;95997.47;4985452;28;20528;-63
2021/07/04 08:06:57;;;;;;;3.42;2.10;;;;;;;26.06;100.00;96004.25;5038207;28;20077;-64
2021/07/04 08:09:25;;;;;;;2.80;2.10;;;;;;;28.46;85.95;95988.72;5004339;28;20544;-64
2021/07/04 08:11:54;;;;;;;2.83;2.50;;;;;;;27.67;85.87;95980.63;4996902;28;20074;-63
2021/07/04 08:14:22;;;;;;;2.78;2.33;;;;;;;28.52;83.57;95977.59;4989711;28;20061;-62
2021/07/04 08:16:51;;;;;;;2.95;2.47;;;;;;;29.99;68.98;95970.28;5000411;28;20078;-62
2021/07/04 08:19:19;;;;;;;2.42;2.22;;;;;;;29.53;75.91;95964.22;4981874;28;20091;-62
2021/07/04 08:21:49;;;;;;;2.60;2.30;;;;;;;31.62;59.63;95962.66;5002908;28;20081;-63
2021/07/04 08:24:18;;;;;;;3.63;2.33;;;;;;;31.04;60.26;95957.31;4994078;28;20453;-62
2021/07/04 08:26:46;;;;;;;2.80;2.50;;;;;;;32.65;50.97;95953.91;4999978;28;20070;-62
2021/07/04 08:29:14;;;;;;;3.10;2.67;;;;;;;32.41;52.41;95962.19;5007424;28;20065;-60
2021/07/04 08:31:43;;;;;;;2.90;2.60;;;;;;;30.84;55.56;95965.66;5009395;28;20081;-63
2021/07/04 08:34:11;;;;;;;3.63;2.88;;;;;;;30.88;58.77;95964.78;4988369;28;20081;-62
2021/07/04 08:36:40;;;;;;;3.72;3.33;;;;;;;31.92;56.21;95961.50;4983244;28;20077;-63
2021/07/04 08:39:10;;;;;;;3.63;3.15;;;;;;;32.20;54.19;95960.88;4998122;28;20092;-63
2021/07/04 08:41:38;;;;;;;3.40;3.10;;;;;;;32.70;51.69;95953.03;5001390;28;20073;-63
2021/07/04 08:44:08;;;;;;;3.35;3.05;;;;;;;32.09;51.40;95952.03;4990309;28;20074;-61
2021/07/04 08:46:38;;;;;;;;;;;;;;;31.73;52.96;95940.75;4992046;28;20174;-63
2021/07/04 08:49:07;;;;;;;3.67;3.33;;;;;;;34.21;44.71;95941.41;5003807;28;19975;-62
2021/07/04 08:51:35;;;;;;;3.70;3.20;;;;;;;34.16;44.62;95936.03;5007190;28;20072;-60
2021/07/04 08:54:04;;;;;;;5.05;3.67;;;;;;;32.90;48.58;95930.84;5008274;28;20096;-61
2021/07/04 08:56:33;;;;;;;4.60;4.20;;;;;;;30.04;62.58;95925.91;5007477;28;20463;-60
2021/07/04 08:59:02;;;;;;;3.75;3.42;;;;;;;30.12;68.17;95925.31;5007233;28;20124;-60
2021/07/04 09:01:31;;;;;;;4.72;4.20;;;;;;;32.76;53.04;95917.16;5010153;28;20073;-59
2021/07/04 09:04:10;;;;;;;5.40;4.07;;;;;;;29.44;67.66;95919.69;5007394;28;20069;-58
2021/07/04 09:06:41;;;;;;;4.65;4.13;;;;;;;30.90;63.37;95920.94;4988797;28;20062;-62
2021/07/04 09:09:21;;;;;;;5.13;4.65;;;;;;;30.82;61.30;95921.56;4952534;28;20066;-57
2021/07/04 09:11:55;;;;;;;;;;;;;;;29.87;67.47;95926.31;5002774;28;20073;-61
2021/07/04 09:14:32;;;;;;;4.40;4.00;;;;;;;31.59;57.97;95916.94;5008296;28;20348;-63
2021/07/04 09:17:06;;;;;;;5.47;4.13;;;;;;;31.85;54.04;95920.13;5005104;28;20069;-63
2021/07/04 09:19:34;;;;;;;5.60;4.57;;;;;;;33.12;46.72;95921.19;5009586;28;20081;-63
2021/07/04 09:22:06;;;;;;;6.10;4.35;;;;;;;34.00;45.14;95930.94;5004859;28;20088;-62
2021/07/04 09:24:36;;;;;;;5.03;4.50;;;;;;;33.44;44.40;95934.75;5007970;28;20488;-61
2021/07/04 09:27:06;;;;;;;5.90;5.00;;;;;;;34.23;42.66;95929.03;5005821;28;20072;-63
2021/07/04 09:29:44;;;;;;;5.25;4.75;;;;;;;33.45;44.79;95927.38;5008697;28;20073;-60
2021/07/04 09:32:14;;;;;;;5.20;4.70;;;;;;;34.37;43.28;95915.28;4997194;28;20097;-61
2021/07/04 09:34:56;;;;;;;6.88;4.47;;;;;;;35.25;41.21;95908.47;4990184;28;20086;-63
2021/07/04 09:37:29;;;;;;;5.03;4.38;;;;;;;34.75;42.97;95917.69;4991532;28;20074;-63
2021/07/04 09:40:16;;;;;;;5.43;4.38;;;;;;;33.33;49.26;95919.69;4990998;28;20458;-60
2021/07/04 09:43:05;;;;;;;5.10;4.60;;;;;;;33.35;45.37;95913.94;5000127;28;20061;-63
2021/07/04 09:45:52;;;;;;;4.82;4.32;;;;;;;32.02;51.79;95922.38;5007898;28;20544;-60
2021/07/04 09:48:23;;;;;;;4.45;4.00;;;;;;;30.86;57.16;95917.97;5006441;28;20088;-60
2021/07/04 09:50:52;;;;;;;5.78;5.18;;;;;;;30.57;59.28;95922.59;5006961;28;20069;-57
2021/07/04 09:53:23;;;;;;;5.40;4.40;;;;;;;33.69;47.35;95916.25;5004560;28;20088;-62
2021/07/04 09:55:54;;;;;;;4.90;4.40;;;;;;;30.64;56.21;95912.19;5007593;28;20468;-60
2021/07/04 09:58:35;;;;;;;4.70;4.30;;;;;;;32.18;50.33;95906.59;4984458;28;20074;-60
2021/07/04 10:01:03;;;;;;;5.55;4.20;;;;;;;33.12;48.56;95899.34;5006865;28;20068;-61
2021/07/04 10:03:32;;;;;;;4.57;4.18;;;;;;;30.23;62.34;95904.34;4993670;28;20457;-63
2021/07/04 10:06:02;;;;;;;5.03;4.53;;;;;;;31.50;51.56;95902.31;4998410;28;20069;-62
2021/07/04 10:08:33;;;;;;;4.55;4.03;;;;;;;33.65;45.81;95902.38;5007846;28;20073;-61
2021/07/04 10:11:03;;;;;;;4.88;3.85;;;;;;;33.50;45.75;95908.97;5006520;28;20066;-63
2021/07/04 10:13:36;;;;;;;4.30;3.72;;;;;;;34.02;44.63;95903.25;5009549;28;20645;-61
2021/07/04 10:16:06;;;;;;;5.38;4.40;;;;;;;33.30;46.19;95896.50;5006300;28;20344;-62
2021/07/04 10:18:35;;;;;;;4.50;3.97;;;;;;;33.17;45.29;95897.28;5006627;28;20070;-61
2021/07/04 10:21:04;;;;;;;4.40;3.63;;;;;;;35.00;41.45;95886.09;5007453;28;20555;-62
2021/07/04 10:23:33;;;;;;;5.40;3.70;;;;;;;33.12;43.96;95875.56;5004870;28;20073;-63
2021/07/04 10:26:01;;;;;;;4.03;3.63;;;;;;;31.82;49.28;95871.63;5004951;28;20074;-62
2021/07/04 10:28:33;;;;;;;4.15;3.53;;;;;;;31.73;49.60;95869.84;4989084;28;20086;-62
2021/07/04 10:31:07;;;;;;;3.92;3.53;;;;;;;34.38;41.86;95872.28;5003482;28;20125;-62
2021/07/04 10:33:35;;;;;;;3.78;3.35;;;;;;;35.10;39.58;95874.03;5006340;28;20061;-60
2021/07/04 10:36:10;;;;;;;3.75;3.35;;;;;;;34.97;41.97;95867.53;5006596;28;20453;-62
2021/07/04 10:38:44;;;;;;;3.58;3.28;;;;;;;36.30;37.41;95855.41;5005563;28;20077;-60
2021/07/04 10:41:19;;;;;;;3.50;3.13;;;;;;;32.78;42.59;95852.09;4997237;28;20058;-61
2021/07/04 10:44:07;;;;;;;5.43;3.17;;;;;;;33.86;42.84;95844.50;4986457;28;20085;-62
2021/07/04 10:47:19;;;;;;;3.60;3.30;;;;;;;33.07;43.22;95840.13;5008593;28;20086;-61
2021/07/04 10:49:50;;;;;;;4.40;3.10;;;;;;;33.20;45.03;95830.31;5004954;28;20490;-62
2021/07/04 10:52:21;;;;;;;3.08;2.72;;;;;;;34.70;40.51;95825.50;5008460;28;20078;-62
2021/07/04 10:54:57;;;;;;;3.22;2.80;;;;;;;33.52;40.40;95832.94;4996514;28;20039;-60
2021/07/04 10:57:32;;;;;;;3.53;2.95;;;;;;;32.57;44.07;95834.50;4999461;28;20070;-59
2021/07/04 11:00:18;;;;;;;2.80;2.50;;;;;;;33.25;42.87;95827.47;5006389;28;20475;-62
2021/07/04 11:02:50;;;;;;;3.17;2.88;;;;;;;33.26;45.23;95835.38;5004727;28;20076;-63
2021/07/04 11:05:39;;;;;;;3.03;2.60;;;;;;;35.21;39.10;95828.00;5006737;28;20072;-60
2021/07/04 11:08:10;;;;;;;3.20;2.90;;;;;;;35.34;37.60;95824.28;4999090;28;20089;-61
2021/07/04 11:10:41;;;;;;;3.42;2.95;;;;;;;36.21;37.47;95819.75;4986523;28;20097;-60
2021/07/04 11:13:30;;;;;;;3.05;2.75;;;;;;;35.53;35.97;95811.13;5001503;28;20470;-62
2021/07/04 11:16:25;;;;;;;3.53;3.10;;;;;;;34.85;37.86;95796.88;5005763;28;20081;-60
2021/07/04 11:19:09;;;;;;;3.75;3.10;;;;;;;35.63;36.16;95793.56;5005857;28;20066;-63
2021/07/04 11:21:58;;;;;;;2.97;2.67;;;;;;;35.84;36.56;95800.03;5006506;28;20081;-59
2021/07/04 11:24:28;;;;;;;3.38;3.08;;;;;;;36.30;35.30;95808.72;5004668;28;20084;-58
2021/07/04 11:27:20;;;;;;;3.10;2.80;;;;;;;36.11;36.06;95809.91;5005302;28;20528;-63
2021/07/04 11:30:26;;;;;;;5.28;3.00;;;;;;;34.53;39.39;95799.94;5005555;28;20061;-65
2021/07/04 11:33:31;;;;;;;4.00;3.08;;;;;;;34.11;40.34;95810.28;5002708;28;20065;-63
2021/07/04 11:36:03;;;;;;;3.22;2.92;;;;;;;34.47;39.53;95797.31;5005417;28;20069;-60
2021/07/04 11:38:33;;;;;;;3.35;3.00;;;;;;;34.66;39.24;95793.56;5005371;28;20057;-62
2021/07/04 11:41:02;;;;;;;3.63;3.30;;;;;;;35.19;36.56;95790.72;5005414;28;20069;-63
2021/07/04 11:43:31;;;;;;;3.78;2.92;;;;;;;37.06;34.67;95788.81;5007278;28;20470;-61